createdAt,value
2017-09-12T00:00:08.689Z,13.32
2017-09-12T00:01:08.698Z,13.3
2017-09-12T00:03:08.744Z,13.36
2017-09-12T00:04:08.465Z,13.32
2017-09-12T00:05:08.802Z,13.36
2017-09-12T00:06:23.430Z,13.42
2017-09-12T00:07:08.829Z,13.29
2017-09-12T00:08:08.856Z,13.33
2017-09-12T00:09:08.883Z,13.3
2017-09-12T00:10:08.900Z,13.22
2017-09-12T00:11:08.925Z,13.38
2017-09-12T00:12:08.948Z,13.29
2017-09-12T00:13:08.958Z,13.39
2017-09-12T00:14:08.671Z,13.36
2017-09-12T00:15:09.006Z,13.39
2017-09-12T00:16:08.715Z,13.32
2017-09-12T00:17:08.751Z,13.33
2017-09-12T00:18:23.694Z,13.32
2017-09-12T00:19:08.792Z,13.3
2017-09-12T00:20:08.813Z,13.22
2017-09-12T00:21:08.837Z,13.25
2017-09-12T00:22:23.788Z,13.22
2017-09-12T00:23:23.803Z,13.15
2017-09-12T00:24:09.246Z,13.26
2017-09-12T00:25:08.924Z,13.15
2017-09-12T00:26:08.952Z,13.04
2017-09-12T00:27:08.962Z,13.04
2017-09-12T00:28:09.300Z,13.04
2017-09-12T00:29:09.002Z,13.05
2017-09-12T00:30:09.028Z,12.93
2017-09-12T00:31:09.365Z,12.9
2017-09-12T00:32:09.077Z,12.9
2017-09-12T00:33:09.413Z,12.87
2017-09-12T00:34:09.113Z,12.93
2017-09-12T00:35:09.149Z,12.89
2017-09-12T00:36:09.481Z,12.85
2017-09-12T00:37:09.499Z,12.85
2017-09-12T00:38:23.821Z,12.92
2017-09-12T00:39:09.549Z,12.86
2017-09-12T00:40:09.243Z,12.83
2017-09-12T00:42:09.626Z,12.83
2017-09-12T00:43:09.638Z,12.77
2017-09-12T00:44:09.344Z,12.85
2017-09-12T00:45:09.675Z,12.87
2017-09-12T00:46:09.705Z,12.9
2017-09-12T00:47:09.408Z,12.89
2017-09-12T00:48:09.430Z,12.82
2017-09-12T00:49:09.759Z,12.9
2017-09-12T00:50:09.466Z,12.79
2017-09-12T00:51:09.816Z,12.85
2017-09-12T00:52:09.209Z,12.79
2017-09-12T00:53:09.841Z,12.82
2017-09-12T00:54:24.483Z,12.78
2017-09-12T00:55:09.901Z,12.78
2017-09-12T00:56:09.914Z,12.77
2017-09-12T00:57:09.631Z,12.79
2017-09-12T00:58:09.952Z,12.82
2017-09-12T00:59:09.978Z,12.86
2017-09-12T01:00:09.691Z,12.74
2017-09-12T01:02:10.043Z,12.72
2017-09-12T01:03:09.787Z,12.77
2017-09-12T01:04:10.086Z,12.82
2017-09-12T01:05:10.107Z,12.72
2017-09-12T01:06:10.133Z,12.74
2017-09-12T01:07:10.156Z,12.74
2017-09-12T01:08:10.180Z,12.65
2017-09-12T01:09:10.224Z,12.75
2017-09-12T01:11:10.248Z,12.77
2017-09-12T01:12:09.945Z,12.79
2017-09-12T01:13:10.289Z,12.67
2017-09-12T01:14:10.301Z,12.75
2017-09-12T01:15:10.378Z,12.67
2017-09-12T01:16:10.351Z,12.68
2017-09-12T01:17:10.372Z,12.68
2017-09-12T01:18:10.385Z,12.65
2017-09-12T01:19:25.037Z,12.57
2017-09-12T01:20:10.132Z,12.68
2017-09-12T01:21:10.465Z,12.65
2017-09-12T01:23:10.511Z,12.64
2017-09-12T01:24:10.215Z,12.67
2017-09-12T01:25:25.166Z,12.71
2017-09-12T01:26:10.572Z,12.67
2017-09-12T01:27:10.587Z,12.57
2017-09-12T01:28:10.309Z,12.53
2017-09-12T01:29:10.319Z,12.56
2017-09-12T01:30:10.357Z,12.65
2017-09-12T01:31:10.375Z,12.68
2017-09-12T01:33:10.411Z,12.5
2017-09-12T01:34:10.739Z,12.52
2017-09-12T01:35:10.766Z,12.46
2017-09-12T01:36:10.795Z,12.46
2017-09-12T01:37:10.805Z,12.47
2017-09-12T01:38:10.529Z,12.5
2017-09-12T01:39:10.551Z,12.56
2017-09-12T01:40:10.568Z,12.53
2017-09-12T01:41:10.585Z,12.46
2017-09-12T01:42:25.224Z,12.5
2017-09-12T01:43:10.628Z,12.57
2017-09-12T01:45:10.994Z,12.47
2017-09-12T01:46:10.683Z,12.54
2017-09-12T01:47:11.025Z,12.45
2017-09-12T01:48:11.045Z,12.47
2017-09-12T01:49:10.766Z,12.5
2017-09-12T01:50:11.099Z,12.49
2017-09-12T01:51:11.112Z,12.45
2017-09-12T01:52:10.819Z,12.39
2017-09-12T01:53:10.854Z,12.42
2017-09-12T01:54:10.858Z,12.46
2017-09-12T01:55:11.197Z,12.46
2017-09-12T01:56:11.229Z,12.53
2017-09-12T01:57:25.862Z,12.47
2017-09-12T01:58:10.959Z,12.47
2017-09-12T01:59:11.293Z,12.45
2017-09-12T02:00:10.988Z,12.49
2017-09-12T02:01:11.019Z,12.49
2017-09-12T02:02:11.051Z,12.45
2017-09-12T02:03:11.362Z,12.5
2017-09-12T02:05:11.416Z,12.47
2017-09-12T02:06:11.121Z,12.45
2017-09-12T02:08:11.495Z,12.42
2017-09-12T02:09:11.507Z,12.34
2017-09-12T02:10:11.520Z,12.39
2017-09-12T02:11:11.538Z,12.45
2017-09-12T02:12:11.580Z,12.47
2017-09-12T02:13:26.198Z,12.41
2017-09-12T02:14:11.295Z,12.38
2017-09-12T02:15:11.624Z,12.47
2017-09-12T02:16:11.347Z,12.46
2017-09-12T02:17:11.375Z,12.41
2017-09-12T02:18:11.394Z,12.37
2017-09-12T02:19:11.708Z,12.34
2017-09-12T02:20:11.428Z,12.37
2017-09-12T02:23:11.503Z,12.31
2017-09-12T02:24:11.819Z,12.37
2017-09-12T02:26:11.263Z,12.45
2017-09-12T02:27:11.894Z,12.41
2017-09-12T02:28:11.613Z,12.39
2017-09-12T02:29:26.547Z,12.35
2017-09-12T02:30:26.262Z,12.38
2017-09-12T02:31:11.986Z,12.38
2017-09-12T02:32:12.000Z,12.39
2017-09-12T02:33:11.715Z,12.31
2017-09-12T02:34:12.050Z,12.35
2017-09-12T02:35:12.064Z,12.38
2017-09-12T02:36:11.779Z,12.37
2017-09-12T02:38:26.749Z,12.29
2017-09-12T02:39:12.160Z,12.27
2017-09-12T02:40:12.167Z,12.29
2017-09-12T02:41:12.203Z,12.32
2017-09-12T02:42:12.217Z,12.34
2017-09-12T02:43:26.853Z,12.37
2017-09-12T02:44:11.953Z,12.32
2017-09-12T02:45:26.891Z,12.29
2017-09-12T02:46:12.315Z,12.24
2017-09-12T02:47:12.316Z,12.31
2017-09-12T02:48:12.031Z,12.31
2017-09-12T02:49:12.376Z,12.34
2017-09-12T02:50:12.396Z,12.37
2017-09-12T02:51:26.709Z,12.35
2017-09-12T02:52:12.125Z,12.37
2017-09-12T02:53:12.141Z,12.37
2017-09-12T02:54:12.171Z,12.28
2017-09-12T02:55:12.175Z,12.27
2017-09-12T02:56:12.199Z,12.23
2017-09-12T02:57:11.915Z,12.21
2017-09-12T02:58:12.551Z,12.17
2017-09-12T02:59:12.578Z,12.19
2017-09-12T03:00:27.214Z,12.17
2017-09-12T03:01:27.237Z,12.2
2017-09-12T03:02:12.640Z,12.24
2017-09-12T03:03:12.365Z,12.2
2017-09-12T03:04:12.379Z,12.09
2017-09-12T03:05:27.333Z,12.17
2017-09-12T03:06:12.730Z,12.04
2017-09-12T03:07:12.444Z,12.02
2017-09-12T03:08:12.475Z,11.99
2017-09-12T03:09:12.801Z,12.02
2017-09-12T03:10:12.498Z,11.96
2017-09-12T03:11:12.527Z,11.86
2017-09-12T03:12:12.558Z,11.96
2017-09-12T03:13:12.577Z,12.04
2017-09-12T03:14:12.583Z,12.04
2017-09-12T03:15:12.608Z,11.99
2017-09-12T03:17:12.651Z,12.01
2017-09-12T03:18:12.671Z,12.09
2017-09-12T03:19:13.019Z,11.94
2017-09-12T03:20:13.018Z,11.95
2017-09-12T03:21:12.739Z,11.9
2017-09-12T03:22:27.375Z,11.9
2017-09-12T03:23:12.790Z,11.96
2017-09-12T03:24:12.798Z,11.94
2017-09-12T03:25:12.822Z,11.8
2017-09-12T03:26:12.850Z,11.78
2017-09-12T03:27:13.169Z,11.96
2017-09-12T03:28:27.821Z,11.95
2017-09-12T03:29:12.913Z,11.94
2017-09-12T03:30:12.945Z,12.02
2017-09-12T03:31:12.960Z,11.96
2017-09-12T03:32:27.902Z,11.98
2017-09-12T03:33:13.005Z,11.94
2017-09-12T03:34:13.328Z,11.99
2017-09-12T03:35:12.728Z,12.02
2017-09-12T03:36:13.373Z,11.95
2017-09-12T03:37:13.391Z,11.99
2017-09-12T03:38:13.112Z,11.96
2017-09-12T03:39:13.425Z,12.01
2017-09-12T03:40:13.145Z,11.95
2017-09-12T03:41:13.174Z,12.01
2017-09-12T03:42:13.496Z,11.94
2017-09-12T03:43:12.900Z,11.94
2017-09-12T03:44:13.550Z,11.79
2017-09-12T03:45:13.253Z,11.83
2017-09-12T03:46:13.607Z,11.83
2017-09-12T03:47:13.599Z,11.91
2017-09-12T03:49:13.661Z,11.82
2017-09-12T03:50:13.659Z,11.78
2017-09-12T03:52:13.407Z,11.73
2017-09-12T03:53:13.419Z,11.8
2017-09-12T03:54:13.758Z,11.82
2017-09-12T03:55:13.784Z,11.83
2017-09-12T03:56:13.797Z,11.86
2017-09-12T03:57:13.830Z,11.76
2017-09-12T03:58:13.842Z,11.76
2017-09-12T03:59:13.543Z,11.88
2017-09-12T04:00:13.893Z,11.98
2017-09-12T04:01:13.899Z,11.96
2017-09-12T04:02:13.620Z,11.95
2017-09-12T04:03:13.958Z,11.94
2017-09-12T04:04:28.589Z,11.96
2017-09-12T04:05:28.301Z,11.86
2017-09-12T04:06:13.703Z,11.91
2017-09-12T04:07:13.415Z,11.94
2017-09-12T04:08:13.733Z,11.91
2017-09-12T04:09:13.769Z,11.83
2017-09-12T04:10:14.084Z,11.85
2017-09-12T04:11:13.821Z,11.7
2017-09-12T04:12:13.837Z,11.8
2017-09-12T04:13:13.846Z,11.79
2017-09-12T04:14:13.866Z,11.76
2017-09-12T04:15:13.905Z,11.8
2017-09-12T04:16:13.923Z,11.78
2017-09-12T04:17:13.934Z,11.79
2017-09-12T04:18:14.253Z,11.82
2017-09-12T04:19:14.288Z,11.75
2017-09-12T04:20:29.080Z,11.73
2017-09-12T04:21:14.328Z,11.75
2017-09-12T04:22:14.033Z,11.64
2017-09-12T04:23:14.369Z,11.67
2017-09-12T04:24:14.096Z,11.73
2017-09-12T04:25:14.105Z,11.65
2017-09-12T04:26:14.120Z,11.69
2017-09-12T04:27:14.465Z,11.65
2017-09-12T04:28:14.484Z,11.58
2017-09-12T04:29:14.497Z,11.69
2017-09-12T04:30:14.213Z,11.69
2017-09-12T04:31:14.551Z,11.65
2017-09-12T04:32:14.249Z,11.67
2017-09-12T04:33:14.579Z,11.67
2017-09-12T04:34:14.616Z,11.69
2017-09-12T04:35:29.246Z,11.73
2017-09-12T04:36:14.656Z,11.65
2017-09-12T04:37:14.674Z,11.75
2017-09-12T04:38:14.709Z,11.75
2017-09-12T04:39:14.401Z,11.76
2017-09-12T04:40:14.738Z,11.8
2017-09-12T04:41:14.768Z,11.96
2017-09-12T04:42:14.461Z,12.01
2017-09-12T04:43:14.795Z,12.04
2017-09-12T04:44:14.503Z,12.01
2017-09-12T04:45:14.834Z,12.04
2017-09-12T04:46:14.861Z,12.02
2017-09-12T04:47:29.499Z,12.13
2017-09-12T04:48:14.903Z,12.14
2017-09-12T04:49:14.915Z,12.32
2017-09-12T04:50:14.943Z,12.31
2017-09-12T04:51:14.652Z,12.28
2017-09-12T04:52:14.980Z,12.32
2017-09-12T04:53:15.003Z,12.29
2017-09-12T04:54:15.032Z,12.34
2017-09-12T04:55:15.051Z,12.38
2017-09-12T04:56:15.071Z,12.31
2017-09-12T04:57:29.717Z,12.35
2017-09-12T04:58:15.124Z,12.39
2017-09-12T04:59:15.148Z,12.34
2017-09-12T05:00:15.160Z,12.29
2017-09-12T05:01:15.185Z,12.31
2017-09-12T05:02:15.204Z,12.27
2017-09-12T05:03:15.223Z,12.21
2017-09-12T05:04:15.253Z,12.32
2017-09-12T05:05:15.255Z,12.37
2017-09-12T05:06:14.670Z,12.46
2017-09-12T05:07:29.919Z,12.46
2017-09-12T05:08:29.968Z,12.54
2017-09-12T05:09:15.357Z,12.52
2017-09-12T05:10:15.064Z,12.56
2017-09-12T05:11:14.769Z,12.68
2017-09-12T05:12:29.720Z,12.75
2017-09-12T05:13:29.742Z,12.79
2017-09-12T05:14:14.851Z,12.89
2017-09-12T05:15:15.171Z,12.86
2017-09-12T05:16:15.193Z,12.92
2017-09-12T05:17:15.528Z,12.93
2017-09-12T05:18:30.165Z,12.92
2017-09-12T05:19:15.561Z,12.95
2017-09-12T05:20:15.578Z,12.89
2017-09-12T05:21:15.634Z,12.92
2017-09-12T05:22:15.017Z,12.92
2017-09-12T05:23:30.285Z,12.96
2017-09-12T05:24:15.379Z,13.04
2017-09-12T05:25:15.389Z,13.14
2017-09-12T05:26:15.411Z,13.19
2017-09-12T05:27:15.742Z,13.28
2017-09-12T05:28:15.759Z,13.32
2017-09-12T05:29:30.413Z,13.42
2017-09-12T05:30:15.515Z,13.32
2017-09-12T05:31:15.832Z,13.41
2017-09-12T05:32:15.864Z,13.42
2017-09-12T05:33:30.495Z,13.46
2017-09-12T05:34:15.586Z,13.42
2017-09-12T05:35:15.611Z,13.55
2017-09-12T05:36:15.635Z,13.59
2017-09-12T05:37:15.652Z,13.59
2017-09-12T05:38:15.992Z,13.55
2017-09-12T05:39:30.626Z,13.63
2017-09-12T05:40:30.336Z,13.63
2017-09-12T05:41:15.731Z,13.48
2017-09-12T05:42:15.755Z,13.62
2017-09-12T05:43:15.793Z,13.63
2017-09-12T05:44:16.111Z,13.62
2017-09-12T05:45:16.153Z,13.67
2017-09-12T05:46:16.165Z,13.64
2017-09-12T05:47:16.185Z,13.71
2017-09-12T05:48:15.894Z,13.78
2017-09-12T05:49:16.224Z,13.89
2017-09-12T05:50:16.246Z,13.96
2017-09-12T05:51:16.276Z,13.89
2017-09-12T05:52:16.305Z,13.95
2017-09-12T05:53:16.027Z,14.04
2017-09-12T05:54:16.333Z,14.09
2017-09-12T05:55:30.978Z,14.12
2017-09-12T05:56:16.373Z,14.03
2017-09-12T05:57:15.785Z,14.2
2017-09-12T05:58:16.433Z,14.22
2017-09-12T05:59:16.443Z,14.32
2017-09-12T06:00:16.160Z,14.36
2017-09-12T06:01:16.494Z,14.43
2017-09-12T06:02:30.817Z,14.47
2017-09-12T06:03:16.225Z,14.55
2017-09-12T06:04:16.239Z,14.5
2017-09-12T06:06:16.596Z,14.57
2017-09-12T06:07:16.623Z,14.73
2017-09-12T06:08:16.644Z,14.65
2017-09-12T06:09:16.680Z,14.64
2017-09-12T06:10:31.310Z,14.72
2017-09-12T06:11:31.328Z,14.75
2017-09-12T06:12:16.746Z,14.84
2017-09-12T06:13:16.760Z,14.91
2017-09-12T06:14:16.799Z,14.92
2017-09-12T06:15:16.826Z,14.92
2017-09-12T06:16:16.827Z,14.91
2017-09-12T06:17:16.846Z,14.95
2017-09-12T06:18:31.495Z,15.06
2017-09-12T06:19:16.901Z,15.11
2017-09-12T06:20:16.912Z,15.2
2017-09-12T06:21:16.947Z,15.2
2017-09-12T06:22:16.961Z,15.23
2017-09-12T06:23:16.994Z,15.23
2017-09-12T06:24:16.705Z,15.23
2017-09-12T06:25:17.032Z,15.2
2017-09-12T06:26:17.060Z,15.11
2017-09-12T06:27:17.076Z,15.2
2017-09-12T06:28:17.112Z,15.21
2017-09-12T06:29:17.124Z,15.16
2017-09-12T06:30:16.830Z,15.21
2017-09-12T06:31:17.169Z,15.31
2017-09-12T06:32:17.185Z,15.29
2017-09-12T06:33:17.219Z,15.27
2017-09-12T06:34:16.920Z,15.27
2017-09-12T06:35:17.263Z,15.44
2017-09-12T06:36:17.289Z,15.49
2017-09-12T06:37:17.001Z,15.59
2017-09-12T06:38:17.326Z,15.51
2017-09-12T06:39:17.343Z,15.6
2017-09-12T06:40:17.069Z,15.71
2017-09-12T06:41:17.386Z,15.71
2017-09-12T06:42:32.134Z,15.82
2017-09-12T06:43:17.443Z,15.82
2017-09-12T06:44:17.160Z,15.68
2017-09-12T06:46:17.199Z,15.84
2017-09-12T06:47:17.522Z,15.93
2017-09-12T06:48:17.562Z,15.78
2017-09-12T06:49:17.267Z,15.87
2017-09-12T06:50:17.598Z,15.96
2017-09-12T06:51:17.614Z,16.07
2017-09-12T06:52:17.331Z,16.14
2017-09-12T06:53:17.664Z,16.23
2017-09-12T06:54:17.590Z,16.28
2017-09-12T06:55:17.415Z,16.31
2017-09-12T06:56:17.734Z,16.45
2017-09-12T06:58:32.399Z,16.88
2017-09-12T06:59:17.801Z,17.03
2017-09-12T07:00:17.514Z,17.06
2017-09-12T07:01:17.855Z,17.21
2017-09-12T07:02:17.271Z,17.25
2017-09-12T07:03:17.595Z,17.31
2017-09-12T07:04:17.934Z,17.37
2017-09-12T07:05:17.945Z,17.36
2017-09-12T07:06:32.597Z,17.33
2017-09-12T07:07:17.999Z,17.43
2017-09-12T07:08:18.044Z,17.37
2017-09-12T07:09:17.738Z,17.49
2017-09-12T07:10:18.072Z,17.41
2017-09-12T07:11:18.124Z,17.4
2017-09-12T07:12:18.111Z,17.44
2017-09-12T07:13:18.152Z,17.33
2017-09-12T07:14:32.786Z,17.3
2017-09-12T07:15:32.505Z,17.26
2017-09-12T07:16:18.218Z,17.23
2017-09-12T07:17:18.231Z,17.26
2017-09-12T07:18:17.947Z,17.41
2017-09-12T07:19:18.285Z,17.63
2017-09-12T07:20:32.936Z,17.78
2017-09-12T07:21:18.334Z,18.05
2017-09-12T07:23:18.378Z,18.14
2017-09-12T07:24:17.787Z,18.41
2017-09-12T07:25:18.431Z,18.72
2017-09-12T07:26:18.464Z,18.91
2017-09-12T07:27:18.481Z,19.14
2017-09-12T07:28:18.513Z,19.06
2017-09-12T07:29:18.524Z,19.25
2017-09-12T07:30:33.178Z,19.25
2017-09-12T07:31:18.584Z,19.37
2017-09-12T07:32:18.619Z,19.58
2017-09-12T07:33:18.321Z,19.78
2017-09-12T07:34:18.034Z,20.2
2017-09-12T07:35:18.685Z,20.41
2017-09-12T07:36:18.709Z,20.5
2017-09-12T07:37:33.357Z,20.47
2017-09-12T07:38:18.760Z,20.05
2017-09-12T07:39:18.778Z,19.73
2017-09-12T07:41:18.839Z,19.48
2017-09-12T07:42:18.874Z,19.5
2017-09-12T07:43:18.588Z,19.5
2017-09-12T07:44:18.924Z,19.31
2017-09-12T07:45:33.249Z,18.84
2017-09-12T07:46:33.600Z,18.66
2017-09-12T07:47:18.998Z,18.55
2017-09-12T07:48:19.037Z,18.72
2017-09-12T07:49:19.036Z,18.52
2017-09-12T07:50:19.074Z,18.47
2017-09-12T07:51:18.784Z,18.51
2017-09-12T07:52:19.133Z,18.47
2017-09-12T07:53:19.140Z,18.69
2017-09-12T07:54:19.180Z,18.7
2017-09-12T07:55:19.190Z,18.88
2017-09-12T07:56:19.228Z,18.81
2017-09-12T07:57:19.253Z,18.98
2017-09-12T07:58:19.283Z,18.8
2017-09-12T07:59:18.979Z,18.63
2017-09-12T08:00:19.328Z,18.3
2017-09-12T08:01:19.350Z,18.17
2017-09-12T08:03:19.411Z,18.39
2017-09-12T08:04:19.425Z,18.27
2017-09-12T08:05:19.451Z,18.26
2017-09-12T08:06:19.478Z,18.42
2017-09-12T08:07:18.882Z,18.45
2017-09-12T08:08:19.529Z,18.54
2017-09-12T08:09:19.231Z,18.47
2017-09-12T08:10:19.263Z,18.41
2017-09-12T08:11:19.601Z,18.48
2017-09-12T08:12:19.628Z,18.63
2017-09-12T08:13:19.332Z,18.6
2017-09-12T08:14:19.664Z,18.58
2017-09-12T08:15:19.382Z,18.65
2017-09-12T08:16:19.721Z,18.35
2017-09-12T08:18:19.760Z,18.52
2017-09-12T08:19:19.808Z,18.75
2017-09-12T08:20:19.821Z,18.76
2017-09-12T08:21:19.849Z,18.9
2017-09-12T08:22:19.865Z,18.91
2017-09-12T08:24:19.302Z,19.22
2017-09-12T08:25:19.957Z,19.21
2017-09-12T08:26:19.970Z,19.08
2017-09-12T08:27:34.615Z,19.06
2017-09-12T08:28:20.022Z,18.94
2017-09-12T08:29:20.042Z,18.91
2017-09-12T08:30:20.069Z,19.16
2017-09-12T08:31:20.091Z,19.07
2017-09-12T08:33:34.449Z,19.18
2017-09-12T08:34:20.156Z,19.07
2017-09-12T08:35:34.805Z,19.02
2017-09-12T08:36:20.233Z,19.1
2017-09-12T08:38:20.263Z,19.1
2017-09-12T08:39:19.982Z,19.16
2017-09-12T08:40:20.345Z,19.4
2017-09-12T08:41:20.033Z,19.36
2017-09-12T08:42:20.354Z,19.14
2017-09-12T08:43:20.386Z,19.36
2017-09-12T08:44:20.416Z,19.41
2017-09-12T08:45:20.429Z,19.77
2017-09-12T08:46:20.460Z,19.96
2017-09-12T08:47:20.181Z,20.01
2017-09-12T08:48:20.518Z,20.13
2017-09-12T08:49:34.850Z,20.11
2017-09-12T08:50:20.566Z,20.1
2017-09-12T08:51:20.595Z,19.96
2017-09-12T08:52:20.622Z,20.24
2017-09-12T08:53:20.335Z,20.38
2017-09-12T08:54:20.667Z,20.55
2017-09-12T08:55:20.691Z,20.7
2017-09-12T08:56:20.406Z,21.04
2017-09-12T08:58:20.459Z,21.67
2017-09-12T08:59:20.792Z,21.88
2017-09-12T09:00:20.508Z,22.1
2017-09-12T09:01:20.523Z,22.57
2017-09-12T09:02:20.565Z,22.49
2017-09-12T09:03:20.893Z,22.28
2017-09-12T09:04:20.609Z,22.12
2017-09-12T09:05:35.580Z,21.91
2017-09-12T09:07:21.010Z,22.12
2017-09-12T09:08:21.031Z,22.22
2017-09-12T09:09:21.057Z,22.47
2017-09-12T09:10:21.086Z,22.61
2017-09-12T09:11:20.795Z,22.79
2017-09-12T09:12:21.140Z,22.92
2017-09-12T09:13:21.161Z,23.02
2017-09-12T09:15:21.215Z,22.33
2017-09-12T09:16:20.944Z,22.33
2017-09-12T09:17:21.266Z,22.2
2017-09-12T09:18:21.002Z,22.14
2017-09-12T09:19:21.344Z,22.37
2017-09-12T09:20:35.971Z,22.4
2017-09-12T09:21:21.071Z,22.57
2017-09-12T09:22:21.407Z,22.77
2017-09-12T09:23:21.443Z,22.73
2017-09-12T09:24:21.465Z,22.6
2017-09-12T09:25:21.501Z,22.39
2017-09-12T09:26:21.217Z,22.57
2017-09-12T09:27:21.253Z,22.61
2017-09-12T09:28:36.206Z,22.27
2017-09-12T09:29:21.615Z,22.14
2017-09-12T09:30:21.637Z,22.02
2017-09-12T09:31:21.659Z,21.9
2017-09-12T09:32:21.386Z,21.84
2017-09-12T09:33:21.422Z,21.59
2017-09-12T09:34:21.750Z,21.56
2017-09-12T09:35:21.774Z,21.91
2017-09-12T09:36:21.806Z,22
2017-09-12T09:37:21.522Z,22.24
2017-09-12T09:38:36.474Z,22.24
2017-09-12T09:39:21.891Z,22.47
2017-09-12T09:40:21.915Z,22.65
2017-09-12T09:41:21.947Z,22.47
2017-09-12T09:42:21.658Z,22.58
2017-09-12T09:43:36.621Z,22.73
2017-09-12T09:44:22.027Z,22.52
2017-09-12T09:45:36.670Z,22.54
2017-09-12T09:46:21.765Z,22.61
2017-09-12T09:47:36.728Z,22.43
2017-09-12T09:48:22.143Z,22.36
2017-09-12T09:49:22.162Z,22.39
2017-09-12T09:50:22.184Z,22.6
2017-09-12T09:51:22.209Z,23
2017-09-12T09:52:36.857Z,22.82
2017-09-12T09:53:22.272Z,22.65
2017-09-12T09:54:22.310Z,22.8
2017-09-12T09:55:22.335Z,22.77
2017-09-12T09:56:22.353Z,22.67
2017-09-12T09:57:22.385Z,22.61
2017-09-12T09:58:22.395Z,22.73
2017-09-12T09:59:22.431Z,22.9
2017-09-12T10:00:22.470Z,22.83
2017-09-12T10:01:22.497Z,22.46
2017-09-12T10:02:37.137Z,22.82
2017-09-12T10:03:22.543Z,22.6
2017-09-12T10:04:22.571Z,22.31
2017-09-12T10:05:22.601Z,22.6
2017-09-12T10:06:22.634Z,22.92
2017-09-12T10:07:22.651Z,23.36
2017-09-12T10:08:36.988Z,23.63
2017-09-12T10:09:22.724Z,23.61
2017-09-12T10:10:37.353Z,23.12
2017-09-12T10:11:22.452Z,22.75
2017-09-12T10:12:22.176Z,22.75
2017-09-12T10:13:22.810Z,22.62
2017-09-12T10:14:22.853Z,22.37
2017-09-12T10:15:22.885Z,22.1
2017-09-12T10:16:22.590Z,22.06
2017-09-12T10:17:22.927Z,22.14
2017-09-12T10:18:22.958Z,21.98
2017-09-12T10:19:22.988Z,21.98
2017-09-12T10:20:22.393Z,21.77
2017-09-12T10:21:23.055Z,21.61
2017-09-12T10:22:23.084Z,21.61
2017-09-12T10:23:22.778Z,21.49
2017-09-12T10:24:37.741Z,21.42
2017-09-12T10:26:22.872Z,21.34
2017-09-12T10:27:22.897Z,21.28
2017-09-12T10:28:23.231Z,21.4
2017-09-12T10:29:22.945Z,21.56
2017-09-12T10:30:22.670Z,21.83
2017-09-12T10:31:23.000Z,22.15
2017-09-12T10:32:23.029Z,21.99
2017-09-12T10:33:37.993Z,21.98
2017-09-12T10:34:23.073Z,21.8
2017-09-12T10:35:23.415Z,21.75
2017-09-12T10:37:23.479Z,21.68
2017-09-12T10:38:23.499Z,21.67
2017-09-12T10:39:23.222Z,21.69
2017-09-12T10:40:38.174Z,21.88
2017-09-12T10:41:23.584Z,21.83
2017-09-12T10:42:23.642Z,21.86
2017-09-12T10:43:23.643Z,22
2017-09-12T10:44:23.348Z,21.98
2017-09-12T10:45:23.679Z,22.2
2017-09-12T10:46:23.707Z,22.12
2017-09-12T10:47:38.359Z,22.03
2017-09-12T10:48:23.767Z,21.88
2017-09-12T10:49:23.792Z,21.98
2017-09-12T10:50:23.819Z,22.1
2017-09-12T10:51:23.839Z,21.96
2017-09-12T10:52:23.548Z,21.94
2017-09-12T10:53:23.902Z,21.67
2017-09-12T10:54:23.604Z,21.68
2017-09-12T10:55:38.566Z,21.75
2017-09-12T10:56:23.659Z,21.69
2017-09-12T10:57:24.002Z,21.64
2017-09-12T10:58:24.029Z,21.56
2017-09-12T10:59:24.050Z,21.58
2017-09-12T11:00:24.084Z,21.62
2017-09-12T11:02:24.123Z,21.88
2017-09-12T11:03:24.164Z,21.92
2017-09-12T11:04:24.175Z,22.09
2017-09-12T11:05:24.214Z,22
2017-09-12T11:06:24.227Z,22.1
2017-09-12T11:07:24.264Z,22.09
2017-09-12T11:08:24.282Z,22.09
2017-09-12T11:09:24.308Z,22.1
2017-09-12T11:10:24.341Z,22.07
2017-09-12T11:11:24.379Z,21.92
2017-09-12T11:12:24.400Z,21.71
2017-09-12T11:14:24.449Z,21.72
2017-09-12T11:16:24.507Z,21.79
2017-09-12T11:17:39.148Z,21.59
2017-09-12T11:18:24.559Z,21.71
2017-09-12T11:19:24.574Z,21.65
2017-09-12T11:20:24.618Z,21.56
2017-09-12T11:21:24.641Z,21.58
2017-09-12T11:23:24.674Z,22.15
2017-09-12T11:24:24.400Z,22.22
2017-09-12T11:25:24.728Z,22.27
2017-09-12T11:26:24.762Z,22.31
2017-09-12T11:27:39.401Z,22.14
2017-09-12T11:28:24.507Z,22.07
2017-09-12T11:29:24.531Z,22.15
2017-09-12T11:30:24.862Z,22.22
2017-09-12T11:31:24.883Z,22.12
2017-09-12T11:32:24.925Z,21.79
2017-09-12T11:33:24.953Z,21.79
2017-09-12T11:34:24.973Z,21.72
2017-09-12T11:35:24.996Z,21.75
2017-09-12T11:36:24.720Z,21.77
2017-09-12T11:37:25.049Z,21.88
2017-09-12T11:38:25.074Z,22.1
2017-09-12T11:39:24.789Z,21.99
2017-09-12T11:40:25.120Z,21.9
2017-09-12T11:41:25.163Z,21.99
2017-09-12T11:42:24.872Z,22.12
2017-09-12T11:43:39.817Z,22.18
2017-09-12T11:44:25.226Z,22.09
2017-09-12T11:45:25.266Z,22.36
2017-09-12T11:46:25.279Z,22.33
2017-09-12T11:47:25.003Z,22.37
2017-09-12T11:48:25.331Z,22.35
2017-09-12T11:49:25.373Z,22.37
2017-09-12T11:50:25.394Z,22.12
2017-09-12T11:51:25.101Z,21.96
2017-09-12T11:52:25.432Z,22.02
2017-09-12T11:54:25.487Z,21.83
2017-09-12T11:55:25.546Z,21.64
2017-09-12T11:56:25.547Z,21.54
2017-09-12T11:57:25.568Z,21.44
2017-09-12T11:58:25.600Z,21.54
2017-09-12T11:59:39.924Z,21.53
2017-09-12T12:00:25.643Z,21.5
2017-09-12T12:01:25.672Z,21.44
2017-09-12T12:02:25.075Z,21.34
2017-09-12T12:03:25.714Z,21.49
2017-09-12T12:04:25.738Z,21.37
2017-09-12T12:05:25.780Z,21.5
2017-09-12T12:06:25.483Z,21.56
2017-09-12T12:07:25.815Z,21.64
2017-09-12T12:08:25.856Z,21.59
2017-09-12T12:09:25.866Z,21.69
2017-09-12T12:10:25.895Z,21.56
2017-09-12T12:11:25.922Z,21.56
2017-09-12T12:12:25.974Z,21.29
2017-09-12T12:13:40.592Z,21.52
2017-09-12T12:14:25.996Z,21.44
2017-09-12T12:15:40.642Z,21.28
2017-09-12T12:16:25.435Z,21.19
2017-09-12T12:17:25.778Z,21.21
2017-09-12T12:18:26.109Z,21.28
2017-09-12T12:19:26.118Z,21.29
2017-09-12T12:20:26.155Z,21.38
2017-09-12T12:21:40.807Z,21.5
2017-09-12T12:22:26.204Z,21.69
2017-09-12T12:23:40.853Z,21.59
2017-09-12T12:24:26.248Z,21.71
2017-09-12T12:25:26.292Z,21.8
2017-09-12T12:26:26.524Z,21.84
2017-09-12T12:27:26.332Z,22.09
2017-09-12T12:28:26.051Z,22.31
2017-09-12T12:30:41.039Z,22.4
2017-09-12T12:31:26.445Z,22.51
2017-09-12T12:32:26.451Z,22.64
2017-09-12T12:33:26.179Z,22.64
2017-09-12T12:34:26.512Z,22.7
2017-09-12T12:35:26.553Z,22.76
2017-09-12T12:37:40.896Z,22.61
2017-09-12T12:38:26.307Z,22.72
2017-09-12T12:39:26.654Z,22.75
2017-09-12T12:40:26.662Z,22.91
2017-09-12T12:41:26.704Z,22.67
2017-09-12T12:42:26.721Z,22.68
2017-09-12T12:43:41.366Z,22.79
2017-09-12T12:44:26.781Z,22.76
2017-09-12T12:45:26.482Z,22.94
2017-09-12T12:46:41.437Z,23.01
2017-09-12T12:47:26.853Z,23.12
2017-09-12T12:48:26.883Z,23.16
2017-09-12T12:49:26.912Z,23.15
2017-09-12T12:50:26.935Z,23.07
2017-09-12T12:51:26.649Z,23
2017-09-12T12:52:27.019Z,23
2017-09-12T12:53:27.000Z,23
2017-09-12T12:54:27.028Z,23.1
2017-09-12T12:55:27.068Z,22.9
2017-09-12T12:56:26.774Z,23.02
2017-09-12T12:57:27.116Z,22.86
2017-09-12T12:58:26.835Z,22.75
2017-09-12T12:59:27.172Z,22.72
2017-09-12T13:00:41.808Z,22.55
2017-09-12T13:01:27.221Z,22.52
2017-09-12T13:02:41.851Z,22.46
2017-09-12T13:04:27.296Z,22.28
2017-09-12T13:05:27.323Z,22.31
2017-09-12T13:06:27.344Z,22.14
2017-09-12T13:07:27.386Z,22.21
2017-09-12T13:08:27.388Z,22.15
2017-09-12T13:09:27.413Z,22.18
2017-09-12T13:10:27.447Z,22.14
2017-09-12T13:11:27.476Z,22.09
2017-09-12T13:12:27.496Z,21.98
2017-09-12T13:13:27.524Z,21.91
2017-09-12T13:14:27.551Z,21.67
2017-09-12T13:15:27.574Z,21.71
2017-09-12T13:16:27.609Z,21.56
2017-09-12T13:17:27.322Z,21.49
2017-09-12T13:18:42.273Z,21.44
2017-09-12T13:19:27.366Z,21.34
2017-09-12T13:20:27.704Z,21.37
2017-09-12T13:21:27.732Z,21.5
2017-09-12T13:22:27.754Z,21.42
2017-09-12T13:23:27.788Z,21.21
2017-09-12T13:24:27.805Z,21.01
2017-09-12T13:25:27.827Z,21.04
2017-09-12T13:27:27.888Z,20.82
2017-09-12T13:28:27.909Z,20.72
2017-09-12T13:29:27.930Z,20.62
2017-09-12T13:30:27.958Z,20.26
2017-09-12T13:31:27.977Z,20.14
2017-09-12T13:32:28.022Z,19.98
2017-09-12T13:33:28.032Z,19.86
2017-09-12T13:34:42.682Z,19.76
2017-09-12T13:36:28.120Z,19.63